createdAt,value
2022-09-30T00:01:15.688Z,72.84
2022-09-30T00:03:49.910Z,72.87
2022-09-30T00:06:31.343Z,72.88
2022-09-30T00:13:44.947Z,72.97
2022-09-30T00:16:23.643Z,72.89
2022-09-30T00:19:16.344Z,72.88
2022-09-30T00:21:48.942Z,73.01
2022-09-30T00:24:25.593Z,72.95
2022-09-30T00:27:25.207Z,73.14
2022-09-30T00:29:55.698Z,73.10
2022-09-30T00:32:37.869Z,73.11
2022-09-30T00:35:09.055Z,72.96
2022-09-30T00:37:37.981Z,73.14
2022-09-30T00:41:06.473Z,73.12
2022-09-30T00:44:19.753Z,73.17
2022-09-30T00:47:02.859Z,73.51
2022-09-30T00:50:11.460Z,73.66
2022-09-30T00:53:12.633Z,73.46
2022-09-30T00:56:24.725Z,73.49
2022-09-30T00:59:00.445Z,73.33
2022-09-30T01:01:33.264Z,73.17
2022-09-30T01:04:08.562Z,72.93
2022-09-30T01:06:38.640Z,72.91
2022-09-30T01:09:10.523Z,73.06
2022-09-30T01:11:39.952Z,73.31
2022-09-30T01:14:21.621Z,73.50
2022-09-30T01:17:09.319Z,73.31
2022-09-30T01:19:38.625Z,73.21
2022-09-30T01:22:27.914Z,73.38
2022-09-30T01:25:27.264Z,73.24
2022-09-30T01:28:40.321Z,73.29
2022-09-30T01:31:46.605Z,73.30
2022-09-30T01:34:45.407Z,72.94
2022-09-30T01:37:46.047Z,72.87
2022-09-30T01:40:33.480Z,73.09
2022-09-30T01:43:16.969Z,73.04
2022-09-30T01:45:59.887Z,73.35
2022-09-30T01:48:47.348Z,73.52
2022-09-30T01:51:32.892Z,73.80
2022-09-30T01:54:13.228Z,73.76
2022-09-30T01:57:43.252Z,73.23
2022-09-30T02:06:58.121Z,73.29
2022-09-30T02:09:37.373Z,73.33
2022-09-30T02:12:12.992Z,73.69
2022-09-30T02:14:47.108Z,73.44
2022-09-30T02:17:33.832Z,73.68
2022-09-30T02:20:15.975Z,73.85
2022-09-30T02:22:52.585Z,73.93
2022-09-30T02:25:30.128Z,73.86
2022-09-30T02:28:04.994Z,73.45
2022-09-30T02:30:37.018Z,73.45
2022-09-30T02:33:34.914Z,73.65
2022-09-30T02:36:31.290Z,73.90
2022-09-30T02:39:17.184Z,74.17
2022-09-30T02:41:59.876Z,73.98
2022-09-30T02:45:13.498Z,73.40
2022-09-30T03:04:31.857Z,73.66
2022-09-30T03:07:03.148Z,73.94
2022-09-30T03:09:37.324Z,74.04
2022-09-30T03:16:45.330Z,74.11
2022-09-30T03:19:59.058Z,74.00
2022-09-30T03:23:15.440Z,73.62
2022-09-30T03:30:29.513Z,73.59
2022-09-30T05:23:20.946Z,74.79
2022-09-30T05:25:52.356Z,74.66
2022-09-30T05:28:22.868Z,74.83
2022-09-30T05:31:00.748Z,74.85
2022-09-30T05:33:30.899Z,74.96
2022-09-30T05:36:11.790Z,74.64
2022-09-30T05:38:42.931Z,74.82
2022-09-30T05:41:15.658Z,74.70
2022-09-30T05:43:47.612Z,74.70
2022-09-30T05:46:21.779Z,74.88
2022-09-30T05:48:53.919Z,74.95
2022-09-30T05:51:24.293Z,74.69
2022-09-30T05:53:52.006Z,74.95
2022-09-30T05:56:22.116Z,74.99
2022-09-30T05:58:51.326Z,75.08
2022-09-30T06:01:20.573Z,74.93
2022-09-30T06:03:51.696Z,74.94
2022-09-30T06:06:22.684Z,74.99
2022-09-30T06:08:51.739Z,74.98
2022-09-30T06:11:23.173Z,74.73
2022-09-30T06:13:52.118Z,74.71
2022-09-30T06:16:23.699Z,74.74
2022-09-30T06:19:16.984Z,74.74
2022-09-30T06:21:45.356Z,74.83
2022-09-30T06:24:18.768Z,74.62
2022-09-30T06:26:51.593Z,74.26
2022-09-30T06:29:22.160Z,73.58
2022-09-30T06:31:51.914Z,73.29
2022-09-30T06:34:22.135Z,73.03
2022-09-30T06:36:53.373Z,72.12
2022-09-30T06:39:26.754Z,71.91
2022-09-30T06:42:01.232Z,72.27
2022-09-30T06:44:33.933Z,71.37
2022-09-30T06:47:04.244Z,70.59
2022-09-30T06:49:47.147Z,69.82
2022-09-30T06:52:17.111Z,69.25
2022-09-30T06:54:49.557Z,67.67
2022-09-30T06:57:29.697Z,66.94
2022-09-30T07:00:20.385Z,65.94
2022-09-30T07:02:52.895Z,64.54
2022-09-30T07:05:42.612Z,64.12
2022-09-30T07:08:12.261Z,63.41
2022-09-30T07:10:46.338Z,63.25
2022-09-30T07:13:17.520Z,62.56
2022-09-30T07:15:46.322Z,62.35
2022-09-30T07:18:16.019Z,62.77
2022-09-30T07:20:53.452Z,62.09
2022-09-30T07:23:29.646Z,60.63
2022-09-30T07:26:04.435Z,61.09
2022-09-30T07:28:35.970Z,61.15
2022-09-30T07:31:31.456Z,62.30
2022-09-30T07:34:02.812Z,62.94
2022-09-30T07:36:33.783Z,64.16
2022-09-30T07:39:11.067Z,64.22
2022-09-30T07:41:41.024Z,63.33
2022-09-30T07:44:14.132Z,63.26
2022-09-30T07:46:45.514Z,62.84
2022-09-30T07:49:24.272Z,62.67
2022-09-30T07:51:55.635Z,64.10
2022-09-30T07:54:27.647Z,63.69
2022-09-30T07:57:09.619Z,64.14
2022-09-30T07:59:42.603Z,64.72
2022-09-30T08:02:16.601Z,64.29
2022-09-30T08:04:46.508Z,64.04
2022-09-30T08:07:19.546Z,64.81
2022-09-30T08:09:48.054Z,64.72
2022-09-30T08:12:17.794Z,64.89
2022-09-30T08:14:48.274Z,64.47
2022-09-30T08:17:15.963Z,63.87
2022-09-30T08:19:44.561Z,62.75
2022-09-30T08:22:16.312Z,61.45
2022-09-30T08:24:44.744Z,61.60
2022-09-30T08:27:14.882Z,61.03
2022-09-30T08:29:54.813Z,60.11
2022-09-30T08:32:28.298Z,60.76
2022-09-30T08:34:58.513Z,62.43
2022-09-30T08:37:26.390Z,63.39
2022-09-30T08:39:55.945Z,63.37
2022-09-30T08:42:57.544Z,63.00
2022-09-30T08:45:34.337Z,63.79
2022-09-30T08:51:20.771Z,64.18
2022-09-30T08:53:49.737Z,63.79
2022-09-30T08:56:30.104Z,63.23
2022-09-30T08:59:24.534Z,63.12
2022-09-30T09:05:54.125Z,61.46
2022-09-30T09:08:38.519Z,61.29
2022-09-30T09:11:30.389Z,60.40
2022-09-30T09:14:06.493Z,59.78
2022-09-30T09:16:50.934Z,60.54
2022-09-30T09:23:33.282Z,59.56
2022-09-30T09:26:03.032Z,59.62
2022-09-30T09:28:59.004Z,59.56
2022-09-30T09:31:28.278Z,59.21
2022-09-30T09:34:09.800Z,59.48
2022-09-30T09:36:43.310Z,59.51
2022-09-30T09:39:24.532Z,59.16
2022-09-30T09:42:19.403Z,58.64
2022-09-30T09:45:23.314Z,58.03
2022-09-30T09:47:53.012Z,57.34
2022-09-30T09:50:48.915Z,57.75
2022-09-30T09:53:46.799Z,57.47
2022-09-30T09:56:22.905Z,57.64
2022-09-30T09:59:15.283Z,57.30
2022-09-30T10:01:50.199Z,56.07
2022-09-30T10:04:25.682Z,56.26
2022-09-30T10:07:12.694Z,56.43
2022-09-30T10:09:42.902Z,56.45
2022-09-30T10:12:14.269Z,56.20
2022-09-30T10:15:13.272Z,56.21
2022-09-30T10:17:51.964Z,56.13
2022-09-30T10:20:29.549Z,56.02
2022-09-30T10:23:03.387Z,55.46
2022-09-30T10:25:30.911Z,55.20
2022-09-30T10:28:04.414Z,54.87
2022-09-30T10:30:41.737Z,54.94
2022-09-30T10:33:17.885Z,55.23
2022-09-30T10:36:04.892Z,54.99
2022-09-30T10:38:34.552Z,55.20
2022-09-30T10:41:04.724Z,55.27
2022-09-30T10:43:45.222Z,54.90
2022-09-30T10:46:27.218Z,53.92
2022-09-30T10:48:59.302Z,53.82
2022-09-30T10:51:33.613Z,54.42
2022-09-30T10:54:02.397Z,54.29
2022-09-30T10:56:37.647Z,53.32
2022-09-30T10:59:16.239Z,53.68
2022-09-30T11:01:57.345Z,53.62
2022-09-30T11:04:39.358Z,53.18
2022-09-30T11:07:26.971Z,52.91
2022-09-30T11:09:58.638Z,53.19
2022-09-30T11:12:44.913Z,52.80
2022-09-30T11:15:30.781Z,52.43
2022-09-30T11:18:29.230Z,52.51
2022-09-30T11:21:03.888Z,52.80
2022-09-30T11:23:56.882Z,52.80
2022-09-30T11:26:44.897Z,52.28
2022-09-30T11:29:35.923Z,52.03
2022-09-30T11:32:27.907Z,51.83
2022-09-30T11:35:27.741Z,51.13
2022-09-30T11:38:08.168Z,51.26
2022-09-30T11:41:35.513Z,51.48
2022-09-30T11:44:26.076Z,50.75
2022-09-30T11:46:57.024Z,50.60
2022-09-30T11:49:52.045Z,50.79
2022-09-30T11:52:35.425Z,51.02
2022-09-30T11:55:31.958Z,50.99
2022-09-30T11:58:41.058Z,50.42
2022-09-30T12:01:33.546Z,50.88
2022-09-30T12:04:25.734Z,50.89
2022-09-30T12:07:19.983Z,51.11
2022-09-30T12:10:04.298Z,50.43
2022-09-30T12:12:33.267Z,50.52
2022-09-30T12:15:05.534Z,50.12
2022-09-30T12:17:42.458Z,50.05
2022-09-30T12:20:21.877Z,50.44
2022-09-30T12:22:53.785Z,50.59
2022-09-30T12:25:32.455Z,50.42
2022-09-30T12:28:32.175Z,50.43
2022-09-30T12:31:26.663Z,50.44
2022-09-30T12:34:13.697Z,50.55
2022-09-30T12:37:01.861Z,50.04
2022-09-30T12:39:41.829Z,49.96
2022-09-30T12:42:33.116Z,49.92
2022-09-30T12:45:30.012Z,50.00
2022-09-30T12:48:22.953Z,49.68
2022-09-30T12:50:58.815Z,49.61
2022-09-30T12:53:32.306Z,49.72
2022-09-30T12:56:23.135Z,49.52
2022-09-30T12:59:20.818Z,49.35
2022-09-30T13:02:34.522Z,49.40
2022-09-30T13:05:42.577Z,49.54
2022-09-30T13:08:57.753Z,49.47
2022-09-30T13:11:56.551Z,49.39
2022-09-30T13:15:12.342Z,49.55
2022-09-30T13:17:41.505Z,49.47
2022-09-30T13:21:03.268Z,49.56
2022-09-30T13:23:39.328Z,49.45
2022-09-30T13:26:38.892Z,49.43
2022-09-30T13:29:08.572Z,49.34
2022-09-30T13:31:47.102Z,49.36
2022-09-30T13:34:44.009Z,49.34
2022-09-30T13:37:40.327Z,49.54
2022-09-30T13:40:50.096Z,49.59
2022-09-30T13:43:42.547Z,49.66
2022-09-30T13:46:37.378Z,49.56
2022-09-30T13:49:38.996Z,49.44
2022-09-30T13:53:02.667Z,49.64
2022-09-30T13:55:55.250Z,49.99
2022-09-30T13:59:03.091Z,49.69
2022-09-30T14:01:53.987Z,49.53
2022-09-30T14:04:48.727Z,49.50
2022-09-30T14:08:10.594Z,49.42
2022-09-30T14:23:20.035Z,49.36
2022-09-30T14:26:20.505Z,49.58
2022-09-30T14:28:58.394Z,49.46
2022-09-30T14:31:30.099Z,49.52
2022-09-30T14:34:18.996Z,49.29
2022-09-30T14:36:51.136Z,49.41
2022-09-30T14:39:30.835Z,49.43
2022-09-30T14:42:05.040Z,49.41
2022-09-30T14:45:17.268Z,49.42
2022-09-30T14:47:59.959Z,49.53
2022-09-30T14:50:37.955Z,49.58
2022-09-30T14:53:31.766Z,49.51
2022-09-30T14:56:44.796Z,49.58
2022-09-30T14:59:45.181Z,49.83
2022-09-30T15:02:26.661Z,50.12
2022-09-30T15:05:01.377Z,50.09
2022-09-30T15:07:35.086Z,50.31
2022-09-30T15:10:05.621Z,50.37
2022-09-30T15:12:50.012Z,50.44
2022-09-30T15:15:37.856Z,50.58
2022-09-30T15:18:42.096Z,50.54
2022-09-30T15:21:16.161Z,50.78
2022-09-30T15:23:53.609Z,50.70
2022-09-30T15:26:27.078Z,50.61
2022-09-30T15:28:55.209Z,50.70
2022-09-30T15:31:30.054Z,50.78
2022-09-30T15:34:20.492Z,50.90
2022-09-30T15:36:56.952Z,50.97
2022-09-30T15:39:49.983Z,51.12
2022-09-30T15:42:35.045Z,51.17
2022-09-30T15:45:30.885Z,51.38
2022-09-30T15:48:08.152Z,51.41
2022-09-30T15:50:48.831Z,51.49
2022-09-30T15:53:25.222Z,51.62
2022-09-30T15:55:57.664Z,51.76
2022-09-30T15:58:34.098Z,51.77
2022-09-30T16:01:25.331Z,52.08
2022-09-30T16:03:59.824Z,52.03
2022-09-30T16:06:43.062Z,52.14
2022-09-30T16:09:36.225Z,52.24
2022-09-30T16:12:10.500Z,52.21
2022-09-30T16:14:51.185Z,52.23
2022-09-30T16:17:27.631Z,52.46
2022-09-30T16:20:21.334Z,52.75
2022-09-30T16:22:55.411Z,53.02
2022-09-30T16:25:27.854Z,53.09
2022-09-30T16:28:02.547Z,53.49
2022-09-30T16:30:34.574Z,53.44
2022-09-30T16:33:06.949Z,53.40
2022-09-30T16:35:35.572Z,53.58
2022-09-30T16:38:07.512Z,53.76
2022-09-30T16:40:37.808Z,53.99
2022-09-30T16:43:12.127Z,54.10
2022-09-30T16:45:40.723Z,53.95
2022-09-30T16:48:18.677Z,54.04
2022-09-30T16:51:04.852Z,54.13
2022-09-30T16:53:33.519Z,54.25
2022-09-30T16:56:05.633Z,54.25
2022-09-30T16:58:35.245Z,54.55
2022-09-30T17:01:06.355Z,54.55
2022-09-30T17:03:36.514Z,54.72
2022-09-30T17:06:07.869Z,54.58
2022-09-30T17:08:35.960Z,54.62
2022-09-30T17:11:03.507Z,54.64
2022-09-30T17:13:33.645Z,54.72
2022-09-30T17:16:04.866Z,54.96
2022-09-30T17:19:23.096Z,55.13
2022-09-30T17:21:54.174Z,55.37
2022-09-30T17:25:06.064Z,55.75
2022-09-30T17:27:34.396Z,55.69
2022-09-30T17:30:07.403Z,55.64
2022-09-30T17:32:39.920Z,55.88
2022-09-30T17:35:13.692Z,56.01
2022-09-30T17:37:49.176Z,56.18
2022-09-30T17:40:36.446Z,56.15
2022-09-30T17:43:08.422Z,56.35
2022-09-30T17:45:43.667Z,56.38
2022-09-30T17:48:12.006Z,56.53
2022-09-30T17:50:44.839Z,56.49
2022-09-30T17:53:35.430Z,56.46
2022-09-30T17:56:12.601Z,56.82
2022-09-30T17:58:42.411Z,56.74
2022-09-30T18:01:13.488Z,57.04
2022-09-30T18:03:43.001Z,57.25
2022-09-30T18:06:17.909Z,57.09
2022-09-30T18:08:51.546Z,57.10
2022-09-30T18:11:27.394Z,57.13
2022-09-30T18:14:27.787Z,57.43
2022-09-30T18:16:58.635Z,57.60
2022-09-30T18:20:26.678Z,57.53
2022-09-30T18:22:58.137Z,57.64
2022-09-30T18:25:26.142Z,57.44
2022-09-30T18:28:23.074Z,57.68
2022-09-30T18:31:08.401Z,58.09
2022-09-30T18:33:43.323Z,58.05
2022-09-30T18:36:33.818Z,57.98
2022-09-30T18:39:05.001Z,58.11
2022-09-30T18:41:43.125Z,58.25
2022-09-30T18:44:18.762Z,58.36
2022-09-30T18:46:58.205Z,58.19
2022-09-30T18:49:31.801Z,58.20
2022-09-30T18:52:11.507Z,58.22
2022-09-30T18:55:01.320Z,58.46
2022-09-30T18:57:32.355Z,58.58
2022-09-30T19:00:01.836Z,58.70
2022-09-30T19:02:32.568Z,58.71
2022-09-30T19:05:00.775Z,58.69
2022-09-30T19:07:31.043Z,58.84
2022-09-30T19:10:02.791Z,58.76
2022-09-30T19:12:36.152Z,58.76
2022-09-30T19:15:08.364Z,58.97
2022-09-30T19:17:37.947Z,59.18
2022-09-30T19:20:09.010Z,58.99
2022-09-30T19:22:39.958Z,59.11
2022-09-30T19:25:21.265Z,59.28
2022-09-30T19:27:56.432Z,59.43
2022-09-30T19:30:27.723Z,59.57
2022-09-30T19:32:59.846Z,59.58
2022-09-30T19:35:40.081Z,59.50
2022-09-30T19:38:37.149Z,59.80
2022-09-30T19:41:10.508Z,59.84
2022-09-30T19:43:44.029Z,59.91
2022-09-30T19:46:13.441Z,59.58
2022-09-30T19:48:46.999Z,59.69
2022-09-30T19:51:20.068Z,59.74
2022-09-30T19:54:05.511Z,59.73
2022-09-30T19:56:41.108Z,59.79
2022-09-30T19:59:11.383Z,59.56
2022-09-30T20:01:44.595Z,59.81
2022-09-30T20:04:18.595Z,59.85
2022-09-30T20:06:48.481Z,60.01
2022-09-30T20:09:20.077Z,60.16
2022-09-30T20:11:50.351Z,59.96
2022-09-30T20:14:38.401Z,59.98
2022-09-30T20:17:14.066Z,60.15
2022-09-30T20:20:05.698Z,60.10
2022-09-30T20:22:53.678Z,59.99
2022-09-30T20:25:33.132Z,60.22
2022-09-30T20:28:07.458Z,60.55
2022-09-30T20:30:48.996Z,60.40
2022-09-30T20:33:25.347Z,60.30
2022-09-30T20:36:00.055Z,60.29
2022-09-30T20:38:33.446Z,60.26
2022-09-30T20:41:05.570Z,60.28
2022-09-30T20:44:17.089Z,60.49
2022-09-30T20:47:06.996Z,60.72
2022-09-30T20:49:37.327Z,60.56
2022-09-30T20:52:08.867Z,60.49
2022-09-30T20:54:39.891Z,60.75
2022-09-30T20:57:09.221Z,60.68
2022-09-30T20:59:37.767Z,60.89
2022-09-30T21:02:08.873Z,60.75
2022-09-30T21:04:37.814Z,60.99
2022-09-30T21:07:07.199Z,60.81
2022-09-30T21:09:38.377Z,61.08
2022-09-30T21:12:10.836Z,61.29
2022-09-30T21:14:43.141Z,61.14
2022-09-30T21:17:15.522Z,61.41
2022-09-30T21:19:44.391Z,61.63
2022-09-30T21:22:16.921Z,61.35
2022-09-30T21:24:45.750Z,61.31
2022-09-30T21:27:16.922Z,61.25
2022-09-30T21:29:47.727Z,61.59
2022-09-30T21:32:19.516Z,61.47
2022-09-30T21:34:49.389Z,61.65
2022-09-30T21:37:23.233Z,61.77
2022-09-30T21:39:50.877Z,61.59
2022-09-30T21:42:21.257Z,61.78
2022-09-30T21:44:50.065Z,61.78
2022-09-30T21:47:22.465Z,62.00
2022-09-30T21:49:52.982Z,61.76
2022-09-30T21:52:26.140Z,61.95
2022-09-30T21:54:59.297Z,61.79
2022-09-30T21:57:29.552Z,62.04
2022-09-30T22:00:02.296Z,62.18
2022-09-30T22:02:31.774Z,62.31
2022-09-30T22:05:42.686Z,62.11
2022-09-30T22:08:50.597Z,62.06
2022-09-30T22:11:55.733Z,62.20
2022-09-30T22:15:23.708Z,62.29
2022-09-30T22:22:50.737Z,62.39
2022-09-30T22:26:07.339Z,62.50
2022-09-30T22:28:53.189Z,62.66
2022-09-30T22:32:12.427Z,62.55
2022-09-30T22:35:48.087Z,62.50
2022-09-30T22:48:52.467Z,62.95
2022-09-30T22:51:22.408Z,62.90
2022-09-30T22:53:55.316Z,62.76
2022-09-30T22:56:29.564Z,62.92
2022-09-30T22:59:00.400Z,63.10
2022-09-30T23:01:32.271Z,63.18
2022-09-30T23:04:10.375Z,63.20
2022-09-30T23:06:39.485Z,63.20
2022-09-30T23:09:12.056Z,63.15
2022-09-30T23:11:42.801Z,63.14
2022-09-30T23:14:13.078Z,63.26
2022-09-30T23:16:42.346Z,63.39
2022-09-30T23:19:13.843Z,63.64
2022-09-30T23:21:43.248Z,63.64
2022-09-30T23:24:12.659Z,63.36
2022-09-30T23:26:47.302Z,63.47
2022-09-30T23:29:17.966Z,63.68
2022-09-30T23:31:51.526Z,63.62
2022-09-30T23:34:23.487Z,63.77
2022-09-30T23:36:54.527Z,63.82
2022-09-30T23:39:23.055Z,63.70
2022-09-30T23:41:55.344Z,63.65
2022-09-30T23:44:28.204Z,64.00
2022-09-30T23:47:17.217Z,63.86
2022-09-30T23:49:46.046Z,64.04
2022-09-30T23:52:15.240Z,63.88
2022-09-30T23:54:45.565Z,64.20
2022-09-30T23:57:15.146Z,64.32
2022-09-30T23:59:47.313Z,64.24
